Bristol, Illinois
Current Conditions -  °F | °C
As of 10:52 AM on Thursday 23 Oct 2014 (Local Time) from KARR Reporting Station
Clear Clear  
Wind Chill: 55°   Ceiling: Unl
Heat Index: 55°   Visibility: 8mi
Dew Point: 42°   Wind: 9mph
Humidity: 62%   Direction: 200°SSW
Pressure: 30.2"   Gusts: NA
Location:  41.69°N, 88.43°W
Report Text: KARR 231552Z 20008KT 8SM CLR 13/06 A3020 RMK AO2 SLP232 T01280056
Loading
Personal Weather Stations






























Interactive Weather Map
Tropical Storm Tracking
New forecast layout! Learn more

10-Day Weather Forecast

Advertisements
Track Severe Weather on mobile